sensor_id;sensor_type;location;lat;lon;timestamp;temperature;humidity
11577;DHT22;5844;51.496;6.788;2022-12-18T00:00:59;-6.30;99.90
11577;DHT22;5844;51.496;6.788;2022-12-18T00:03:25;-6.30;99.90
11577;DHT22;5844;51.496;6.788;2022-12-18T00:05:51;-6.40;99.90
11577;DHT22;5844;51.496;6.788;2022-12-18T00:08:18;-6.50;99.90
11577;DHT22;5844;51.496;6.788;2022-12-18T00:10:44;-6.60;99.90
11577;DHT22;5844;51.496;6.788;2022-12-18T00:13:11;-6.60;99.90
11577;DHT22;5844;51.496;6.788;2022-12-18T00:15:38;-6.70;99.90
11577;DHT22;5844;51.496;6.788;2022-12-18T00:18:04;-6.70;99.90
11577;DHT22;5844;51.496;6.788;2022-12-18T00:20:30;-6.70;99.90
11577;DHT22;5844;51.496;6.788;2022-12-18T00:22:56;-6.70;99.90
11577;DHT22;5844;51.496;6.788;2022-12-18T00:25:22;-6.70;99.90
11577;DHT22;5844;51.496;6.788;2022-12-18T00:27:48;-6.60;99.90
11577;DHT22;5844;51.496;6.788;2022-12-18T00:30:14;-6.60;99.90
11577;DHT22;5844;51.496;6.788;2022-12-18T00:32:40;-6.70;99.90
11577;DHT22;5844;51.496;6.788;2022-12-18T00:35:06;-6.70;99.90
11577;DHT22;5844;51.496;6.788;2022-12-18T00:37:33;-6.70;99.90
11577;DHT22;5844;51.496;6.788;2022-12-18T00:39:59;-6.80;99.90
11577;DHT22;5844;51.496;6.788;2022-12-18T00:42:25;-6.80;99.90
11577;DHT22;5844;51.496;6.788;2022-12-18T00:45:09;-6.80;99.90
11577;DHT22;5844;51.496;6.788;2022-12-18T00:47:35;-6.80;99.90
11577;DHT22;5844;51.496;6.788;2022-12-18T00:50:01;-6.90;99.90
11577;DHT22;5844;51.496;6.788;2022-12-18T00:52:26;-6.90;99.90
11577;DHT22;5844;51.496;6.788;2022-12-18T00:54:52;-6.90;99.90
11577;DHT22;5844;51.496;6.788;2022-12-18T00:57:17;-7.00;99.90
11577;DHT22;5844;51.496;6.788;2022-12-18T00:59:43;-7.00;99.90
11577;DHT22;5844;51.496;6.788;2022-12-18T01:02:09;-7.10;99.90
11577;DHT22;5844;51.496;6.788;2022-12-18T01:04:34;-7.10;99.90
11577;DHT22;5844;51.496;6.788;2022-12-18T01:07:00;-7.10;99.90
11577;DHT22;5844;51.496;6.788;2022-12-18T01:09:26;-7.10;99.90
11577;DHT22;5844;51.496;6.788;2022-12-18T01:11:51;-7.10;99.90
11577;DHT22;5844;51.496;6.788;2022-12-18T01:14:17;-7.10;99.90
11577;DHT22;5844;51.496;6.788;2022-12-18T01:16:43;-7.10;99.90
11577;DHT22;5844;51.496;6.788;2022-12-18T01:19:08;-7.20;99.90
11577;DHT22;5844;51.496;6.788;2022-12-18T01:21:34;-7.10;99.90
11577;DHT22;5844;51.496;6.788;2022-12-18T01:24:00;-7.20;99.90
11577;DHT22;5844;51.496;6.788;2022-12-18T01:26:26;-7.20;99.90
11577;DHT22;5844;51.496;6.788;2022-12-18T01:28:55;-7.20;99.90
11577;DHT22;5844;51.496;6.788;2022-12-18T01:33:47;-7.20;99.90
11577;DHT22;5844;51.496;6.788;2022-12-18T01:36:25;-7.20;99.90
11577;DHT22;5844;51.496;6.788;2022-12-18T01:38:51;-7.20;99.90
11577;DHT22;5844;51.496;6.788;2022-12-18T01:41:21;-7.30;99.90
11577;DHT22;5844;51.496;6.788;2022-12-18T01:43:57;-7.30;99.90
11577;DHT22;5844;51.496;6.788;2022-12-18T01:46:24;-7.30;99.90
11577;DHT22;5844;51.496;6.788;2022-12-18T01:48:56;-7.30;99.90
11577;DHT22;5844;51.496;6.788;2022-12-18T01:51:22;-7.30;99.90
11577;DHT22;5844;51.496;6.788;2022-12-18T01:53:48;-7.30;99.90
11577;DHT22;5844;51.496;6.788;2022-12-18T01:56:18;-7.30;99.90
11577;DHT22;5844;51.496;6.788;2022-12-18T01:58:56;-7.30;99.90
11577;DHT22;5844;51.496;6.788;2022-12-18T02:01:24;-7.30;99.90
11577;DHT22;5844;51.496;6.788;2022-12-18T02:03:50;-7.40;99.90
11577;DHT22;5844;51.496;6.788;2022-12-18T02:06:33;-7.40;99.90
11577;DHT22;5844;51.496;6.788;2022-12-18T02:09:12;-7.30;99.90
11577;DHT22;5844;51.496;6.788;2022-12-18T02:14:32;-7.30;99.90
11577;DHT22;5844;51.496;6.788;2022-12-18T02:17:11;-7.30;99.90
11577;DHT22;5844;51.496;6.788;2022-12-18T02:22:39;-7.40;99.90
11577;DHT22;5844;51.496;6.788;2022-12-18T02:28:28;-7.40;99.90
11577;DHT22;5844;51.496;6.788;2022-12-18T02:30:58;-7.40;99.90
11577;DHT22;5844;51.496;6.788;2022-12-18T02:33:27;-7.30;99.90
11577;DHT22;5844;51.496;6.788;2022-12-18T02:35:54;-7.30;99.90
11577;DHT22;5844;51.496;6.788;2022-12-18T02:38:22;-7.30;99.90
11577;DHT22;5844;51.496;6.788;2022-12-18T02:40:49;-7.40;99.90
11577;DHT22;5844;51.496;6.788;2022-12-18T02:43:16;-7.40;99.90
11577;DHT22;5844;51.496;6.788;2022-12-18T02:45:52;-7.40;99.90
11577;DHT22;5844;51.496;6.788;2022-12-18T02:48:23;-7.40;99.90
11577;DHT22;5844;51.496;6.788;2022-12-18T02:56:09;-7.40;99.90
11577;DHT22;5844;51.496;6.788;2022-12-18T03:01:52;-7.40;99.90
11577;DHT22;5844;51.496;6.788;2022-12-18T03:04:38;-7.30;99.90
11577;DHT22;5844;51.496;6.788;2022-12-18T03:07:11;-7.40;99.90
11577;DHT22;5844;51.496;6.788;2022-12-18T03:09:44;-7.40;99.90
11577;DHT22;5844;51.496;6.788;2022-12-18T03:15:13;-7.50;99.90
11577;DHT22;5844;51.496;6.788;2022-12-18T03:17:42;-7.50;99.90
11577;DHT22;5844;51.496;6.788;2022-12-18T03:20:15;-7.50;99.90
11577;DHT22;5844;51.496;6.788;2022-12-18T03:22:44;-7.50;99.90
11577;DHT22;5844;51.496;6.788;2022-12-18T03:25:13;-7.50;99.90
11577;DHT22;5844;51.496;6.788;2022-12-18T03:27:43;-7.50;99.90
11577;DHT22;5844;51.496;6.788;2022-12-18T03:30:12;-7.60;99.90
11577;DHT22;5844;51.496;6.788;2022-12-18T03:35:14;-7.50;99.90
11577;DHT22;5844;51.496;6.788;2022-12-18T03:37:42;-7.50;99.90
11577;DHT22;5844;51.496;6.788;2022-12-18T03:40:08;-7.50;99.90
11577;DHT22;5844;51.496;6.788;2022-12-18T03:42:52;-7.50;99.90
11577;DHT22;5844;51.496;6.788;2022-12-18T03:45:27;-7.60;99.90
11577;DHT22;5844;51.496;6.788;2022-12-18T03:48:22;-7.60;99.90
11577;DHT22;5844;51.496;6.788;2022-12-18T03:51:37;-7.60;99.90
11577;DHT22;5844;51.496;6.788;2022-12-18T03:54:06;-7.60;99.90
11577;DHT22;5844;51.496;6.788;2022-12-18T03:56:42;-7.60;99.90
11577;DHT22;5844;51.496;6.788;2022-12-18T03:59:11;-7.60;99.90
11577;DHT22;5844;51.496;6.788;2022-12-18T04:01:45;-7.60;99.90
11577;DHT22;5844;51.496;6.788;2022-12-18T04:04:12;-7.60;99.90
11577;DHT22;5844;51.496;6.788;2022-12-18T04:06:40;-7.60;99.90
11577;DHT22;5844;51.496;6.788;2022-12-18T04:09:07;-7.60;99.90
11577;DHT22;5844;51.496;6.788;2022-12-18T04:11:33;-7.60;99.90
11577;DHT22;5844;51.496;6.788;2022-12-18T04:13:59;-7.60;99.90
11577;DHT22;5844;51.496;6.788;2022-12-18T04:16:27;-7.50;99.90
11577;DHT22;5844;51.496;6.788;2022-12-18T04:18:54;-7.50;99.90
11577;DHT22;5844;51.496;6.788;2022-12-18T04:21:20;-7.50;99.90
11577;DHT22;5844;51.496;6.788;2022-12-18T04:23:45;-7.50;99.90
11577;DHT22;5844;51.496;6.788;2022-12-18T04:26:11;-7.60;99.90
11577;DHT22;5844;51.496;6.788;2022-12-18T04:28:37;-7.60;99.90
11577;DHT22;5844;51.496;6.788;2022-12-18T04:31:03;-7.60;99.90
11577;DHT22;5844;51.496;6.788;2022-12-18T04:33:28;-7.60;99.90
11577;DHT22;5844;51.496;6.788;2022-12-18T04:35:54;-7.60;99.90
11577;DHT22;5844;51.496;6.788;2022-12-18T04:38:19;-7.60;99.90
11577;DHT22;5844;51.496;6.788;2022-12-18T04:40:45;-7.60;99.90
11577;DHT22;5844;51.496;6.788;2022-12-18T04:43:11;-7.60;99.90
11577;DHT22;5844;51.496;6.788;2022-12-18T04:45:37;-7.60;99.90
11577;DHT22;5844;51.496;6.788;2022-12-18T04:48:03;-7.60;99.90
11577;DHT22;5844;51.496;6.788;2022-12-18T04:50:29;-7.40;99.90
11577;DHT22;5844;51.496;6.788;2022-12-18T04:52:55;-7.30;99.90
11577;DHT22;5844;51.496;6.788;2022-12-18T04:55:21;-7.30;99.90
11577;DHT22;5844;51.496;6.788;2022-12-18T04:57:50;-7.40;99.90
11577;DHT22;5844;51.496;6.788;2022-12-18T05:00:16;-7.40;99.90
11577;DHT22;5844;51.496;6.788;2022-12-18T05:02:41;-7.40;99.90
11577;DHT22;5844;51.496;6.788;2022-12-18T05:05:07;-7.40;99.90
11577;DHT22;5844;51.496;6.788;2022-12-18T05:07:33;-7.40;99.90
11577;DHT22;5844;51.496;6.788;2022-12-18T05:09:58;-7.40;99.90
11577;DHT22;5844;51.496;6.788;2022-12-18T05:12:24;-7.30;99.90
11577;DHT22;5844;51.496;6.788;2022-12-18T05:14:50;-7.20;99.90
11577;DHT22;5844;51.496;6.788;2022-12-18T05:17:15;-7.10;99.90
11577;DHT22;5844;51.496;6.788;2022-12-18T05:19:41;-7.20;99.90
11577;DHT22;5844;51.496;6.788;2022-12-18T05:22:07;-7.20;99.90
11577;DHT22;5844;51.496;6.788;2022-12-18T05:24:33;-7.30;99.90
11577;DHT22;5844;51.496;6.788;2022-12-18T05:26:58;-7.30;99.90
11577;DHT22;5844;51.496;6.788;2022-12-18T05:29:24;-7.40;99.90
11577;DHT22;5844;51.496;6.788;2022-12-18T05:31:50;-7.40;99.90
11577;DHT22;5844;51.496;6.788;2022-12-18T05:34:15;-7.40;99.90
11577;DHT22;5844;51.496;6.788;2022-12-18T05:36:41;-7.40;99.90
11577;DHT22;5844;51.496;6.788;2022-12-18T05:39:07;-7.50;99.90
11577;DHT22;5844;51.496;6.788;2022-12-18T05:41:33;-7.50;99.90
11577;DHT22;5844;51.496;6.788;2022-12-18T05:43:58;-7.50;99.90
11577;DHT22;5844;51.496;6.788;2022-12-18T05:46:24;-7.50;99.90
11577;DHT22;5844;51.496;6.788;2022-12-18T05:48:50;-7.50;99.90
11577;DHT22;5844;51.496;6.788;2022-12-18T05:51:18;-7.50;99.90
11577;DHT22;5844;51.496;6.788;2022-12-18T05:53:44;-7.50;99.90
11577;DHT22;5844;51.496;6.788;2022-12-18T05:56:18;-7.50;99.90
11577;DHT22;5844;51.496;6.788;2022-12-18T05:58:44;-7.50;99.90
11577;DHT22;5844;51.496;6.788;2022-12-18T06:01:18;-7.50;99.90
11577;DHT22;5844;51.496;6.788;2022-12-18T06:03:44;-7.50;99.90
11577;DHT22;5844;51.496;6.788;2022-12-18T06:06:20;-7.50;99.90
11577;DHT22;5844;51.496;6.788;2022-12-18T06:08:47;-7.50;99.90
11577;DHT22;5844;51.496;6.788;2022-12-18T06:11:15;-7.50;99.90
11577;DHT22;5844;51.496;6.788;2022-12-18T06:13:41;-7.10;99.90
11577;DHT22;5844;51.496;6.788;2022-12-18T06:16:07;-7.50;99.90
11577;DHT22;5844;51.496;6.788;2022-12-18T06:18:33;-7.50;99.90
11577;DHT22;5844;51.496;6.788;2022-12-18T06:20:59;-7.50;99.90
11577;DHT22;5844;51.496;6.788;2022-12-18T06:23:26;-7.50;99.90
11577;DHT22;5844;51.496;6.788;2022-12-18T06:25:51;-7.50;99.90
11577;DHT22;5844;51.496;6.788;2022-12-18T06:28:17;-7.40;99.90
11577;DHT22;5844;51.496;6.788;2022-12-18T06:30:44;-7.40;99.90
11577;DHT22;5844;51.496;6.788;2022-12-18T06:33:10;-7.40;99.90
11577;DHT22;5844;51.496;6.788;2022-12-18T06:35:35;-7.50;99.90
11577;DHT22;5844;51.496;6.788;2022-12-18T06:38:02;-7.50;99.90
11577;DHT22;5844;51.496;6.788;2022-12-18T06:40:28;-7.50;99.90
11577;DHT22;5844;51.496;6.788;2022-12-18T06:42:54;-7.50;99.90
11577;DHT22;5844;51.496;6.788;2022-12-18T06:45:20;-7.50;99.90
11577;DHT22;5844;51.496;6.788;2022-12-18T06:47:45;-7.60;99.90
11577;DHT22;5844;51.496;6.788;2022-12-18T06:50:11;-7.50;99.90
11577;DHT22;5844;51.496;6.788;2022-12-18T06:52:37;-7.60;99.90
11577;DHT22;5844;51.496;6.788;2022-12-18T06:55:04;-7.60;99.90
11577;DHT22;5844;51.496;6.788;2022-12-18T06:57:30;-7.60;99.90
11577;DHT22;5844;51.496;6.788;2022-12-18T06:59:56;-7.60;99.90
11577;DHT22;5844;51.496;6.788;2022-12-18T07:02:21;-7.50;99.90
11577;DHT22;5844;51.496;6.788;2022-12-18T07:04:47;-7.50;99.90
11577;DHT22;5844;51.496;6.788;2022-12-18T07:07:15;-7.40;99.90
11577;DHT22;5844;51.496;6.788;2022-12-18T07:09:41;-7.40;99.90
11577;DHT22;5844;51.496;6.788;2022-12-18T07:12:07;-7.30;99.90
11577;DHT22;5844;51.496;6.788;2022-12-18T07:14:33;-7.30;99.90
11577;DHT22;5844;51.496;6.788;2022-12-18T07:16:59;-7.40;99.90
11577;DHT22;5844;51.496;6.788;2022-12-18T07:19:25;-7.40;99.90
11577;DHT22;5844;51.496;6.788;2022-12-18T07:21:51;-7.50;99.90
11577;DHT22;5844;51.496;6.788;2022-12-18T07:24:16;-7.50;99.90
11577;DHT22;5844;51.496;6.788;2022-12-18T07:26:42;-7.40;99.90
11577;DHT22;5844;51.496;6.788;2022-12-18T07:29:09;-7.30;99.90
11577;DHT22;5844;51.496;6.788;2022-12-18T07:31:34;-7.30;99.90
11577;DHT22;5844;51.496;6.788;2022-12-18T07:34:00;-7.30;99.90
11577;DHT22;5844;51.496;6.788;2022-12-18T07:36:25;-7.20;99.90
11577;DHT22;5844;51.496;6.788;2022-12-18T07:38:51;-7.10;99.90
11577;DHT22;5844;51.496;6.788;2022-12-18T07:41:18;-7.10;99.90
11577;DHT22;5844;51.496;6.788;2022-12-18T07:43:44;-7.10;99.90
11577;DHT22;5844;51.496;6.788;2022-12-18T07:46:11;-7.10;99.90
11577;DHT22;5844;51.496;6.788;2022-12-18T07:48:39;-7.10;99.90
11577;DHT22;5844;51.496;6.788;2022-12-18T07:51:06;-7.10;99.90
11577;DHT22;5844;51.496;6.788;2022-12-18T07:53:32;-7.20;99.90
11577;DHT22;5844;51.496;6.788;2022-12-18T07:56:04;-7.20;99.90
11577;DHT22;5844;51.496;6.788;2022-12-18T07:58:30;-7.30;99.90
11577;DHT22;5844;51.496;6.788;2022-12-18T08:01:11;-7.30;99.90
11577;DHT22;5844;51.496;6.788;2022-12-18T08:03:39;-7.20;99.90
11577;DHT22;5844;51.496;6.788;2022-12-18T08:06:07;-7.20;99.90
11577;DHT22;5844;51.496;6.788;2022-12-18T08:08:33;-7.20;99.90
11577;DHT22;5844;51.496;6.788;2022-12-18T08:11:00;-7.20;99.90
11577;DHT22;5844;51.496;6.788;2022-12-18T08:13:26;-7.10;99.90
11577;DHT22;5844;51.496;6.788;2022-12-18T08:15:56;-7.00;99.90
11577;DHT22;5844;51.496;6.788;2022-12-18T08:18:22;-7.00;99.90
11577;DHT22;5844;51.496;6.788;2022-12-18T08:20:48;-6.90;99.90
11577;DHT22;5844;51.496;6.788;2022-12-18T08:23:13;-6.80;99.90
11577;DHT22;5844;51.496;6.788;2022-12-18T08:25:39;-6.70;99.90
11577;DHT22;5844;51.496;6.788;2022-12-18T08:28:05;-6.50;99.90
11577;DHT22;5844;51.496;6.788;2022-12-18T08:30:30;-6.20;99.90
11577;DHT22;5844;51.496;6.788;2022-12-18T08:32:56;-6.10;99.90
11577;DHT22;5844;51.496;6.788;2022-12-18T08:35:21;-6.10;99.90
11577;DHT22;5844;51.496;6.788;2022-12-18T08:37:47;-5.90;99.90
11577;DHT22;5844;51.496;6.788;2022-12-18T08:40:13;-5.70;99.90
11577;DHT22;5844;51.496;6.788;2022-12-18T08:42:38;-5.60;99.90
11577;DHT22;5844;51.496;6.788;2022-12-18T08:45:22;-5.40;99.90
11577;DHT22;5844;51.496;6.788;2022-12-18T08:47:50;-5.20;99.90
11577;DHT22;5844;51.496;6.788;2022-12-18T08:50:15;-5.10;99.90
11577;DHT22;5844;51.496;6.788;2022-12-18T08:52:41;-4.90;99.90
11577;DHT22;5844;51.496;6.788;2022-12-18T08:55:07;-4.80;99.90
11577;DHT22;5844;51.496;6.788;2022-12-18T08:57:33;-4.60;99.90
11577;DHT22;5844;51.496;6.788;2022-12-18T08:59:59;-4.50;99.90
11577;DHT22;5844;51.496;6.788;2022-12-18T09:02:25;-4.30;99.90
11577;DHT22;5844;51.496;6.788;2022-12-18T09:04:50;-4.20;99.90
11577;DHT22;5844;51.496;6.788;2022-12-18T09:07:16;-4.00;99.90
11577;DHT22;5844;51.496;6.788;2022-12-18T09:09:41;-3.90;99.90
11577;DHT22;5844;51.496;6.788;2022-12-18T09:12:07;-3.80;99.90
11577;DHT22;5844;51.496;6.788;2022-12-18T09:14:33;-3.70;99.90
11577;DHT22;5844;51.496;6.788;2022-12-18T09:16:58;-3.70;99.90
11577;DHT22;5844;51.496;6.788;2022-12-18T09:19:24;-3.60;99.90
11577;DHT22;5844;51.496;6.788;2022-12-18T09:21:49;-3.60;99.90
11577;DHT22;5844;51.496;6.788;2022-12-18T09:24:16;-3.50;99.90
11577;DHT22;5844;51.496;6.788;2022-12-18T09:26:41;-3.50;99.90
11577;DHT22;5844;51.496;6.788;2022-12-18T09:29:07;-3.40;99.90
11577;DHT22;5844;51.496;6.788;2022-12-18T09:31:33;-3.20;99.90
11577;DHT22;5844;51.496;6.788;2022-12-18T09:33:59;-2.90;99.90
11577;DHT22;5844;51.496;6.788;2022-12-18T09:36:24;-2.70;99.90
11577;DHT22;5844;51.496;6.788;2022-12-18T09:38:50;-2.50;99.90
11577;DHT22;5844;51.496;6.788;2022-12-18T09:46:40;-2.00;99.90
11577;DHT22;5844;51.496;6.788;2022-12-18T09:49:14;-1.80;99.90
11577;DHT22;5844;51.496;6.788;2022-12-18T09:51:50;-1.70;99.90
11577;DHT22;5844;51.496;6.788;2022-12-18T09:54:25;-1.50;99.90
11577;DHT22;5844;51.496;6.788;2022-12-18T09:56:52;-1.40;99.90
11577;DHT22;5844;51.496;6.788;2022-12-18T09:59:23;-1.40;99.90
11577;DHT22;5844;51.496;6.788;2022-12-18T10:01:49;-1.30;99.90
11577;DHT22;5844;51.496;6.788;2022-12-18T10:04:15;-1.20;99.90
11577;DHT22;5844;51.496;6.788;2022-12-18T10:09:32;-1.00;99.90
11577;DHT22;5844;51.496;6.788;2022-12-18T10:12:07;-0.80;99.90
11577;DHT22;5844;51.496;6.788;2022-12-18T10:14:42;-0.70;99.90
11577;DHT22;5844;51.496;6.788;2022-12-18T10:17:34;-0.50;99.90
11577;DHT22;5844;51.496;6.788;2022-12-18T10:20:10;-0.40;99.90
11577;DHT22;5844;51.496;6.788;2022-12-18T10:25:40;0.00;99.90
11577;DHT22;5844;51.496;6.788;2022-12-18T10:28:13;0.30;99.90
11577;DHT22;5844;51.496;6.788;2022-12-18T10:30:40;0.40;99.90
11577;DHT22;5844;51.496;6.788;2022-12-18T10:33:11;0.60;99.90
11577;DHT22;5844;51.496;6.788;2022-12-18T10:35:40;0.70;99.90
11577;DHT22;5844;51.496;6.788;2022-12-18T10:38:22;1.10;99.90
11577;DHT22;5844;51.496;6.788;2022-12-18T10:48:46;2.40;99.90
11577;DHT22;5844;51.496;6.788;2022-12-18T10:56:29;2.60;1.00
11577;DHT22;5844;51.496;6.788;2022-12-18T10:59:01;2.60;1.00
11577;DHT22;5844;51.496;6.788;2022-12-18T11:01:28;2.60;99.90
11577;DHT22;5844;51.496;6.788;2022-12-18T11:06:24;2.70;99.90
11577;DHT22;5844;51.496;6.788;2022-12-18T11:09:20;2.80;99.90
11577;DHT22;5844;51.496;6.788;2022-12-18T11:11:54;2.70;99.90
11577;DHT22;5844;51.496;6.788;2022-12-18T11:14:25;2.70;99.90
11577;DHT22;5844;51.496;6.788;2022-12-18T11:16:52;2.80;99.90
11577;DHT22;5844;51.496;6.788;2022-12-18T11:21:54;3.00;28.50
11577;DHT22;5844;51.496;6.788;2022-12-18T11:24:25;3.00;10.20
11577;DHT22;5844;51.496;6.788;2022-12-18T11:26:52;3.10;55.10
11577;DHT22;5844;51.496;6.788;2022-12-18T11:29:33;3.10;1.00
11577;DHT22;5844;51.496;6.788;2022-12-18T11:34:42;3.30;1.00
11577;DHT22;5844;51.496;6.788;2022-12-18T11:37:12;3.50;1.00
11577;DHT22;5844;51.496;6.788;2022-12-18T11:40:10;3.40;1.00
11577;DHT22;5844;51.496;6.788;2022-12-18T11:42:52;3.50;1.00
11577;DHT22;5844;51.496;6.788;2022-12-18T11:45:29;3.40;1.00
11577;DHT22;5844;51.496;6.788;2022-12-18T11:48:32;3.40;1.00
11577;DHT22;5844;51.496;6.788;2022-12-18T11:51:03;3.30;1.00
11577;DHT22;5844;51.496;6.788;2022-12-18T11:53:30;3.30;1.00
11577;DHT22;5844;51.496;6.788;2022-12-18T11:58:50;3.30;1.00
11577;DHT22;5844;51.496;6.788;2022-12-18T12:01:37;3.20;1.00
11577;DHT22;5844;51.496;6.788;2022-12-18T12:04:31;3.10;99.90
11577;DHT22;5844;51.496;6.788;2022-12-18T12:12:52;3.20;99.90
11577;DHT22;5844;51.496;6.788;2022-12-18T12:18:36;3.20;99.90
11577;DHT22;5844;51.496;6.788;2022-12-18T12:21:23;3.20;99.90
11577;DHT22;5844;51.496;6.788;2022-12-18T12:23:58;3.10;99.90
11577;DHT22;5844;51.496;6.788;2022-12-18T12:26:42;3.20;99.90
11577;DHT22;5844;51.496;6.788;2022-12-18T12:32:16;3.20;99.90
11577;DHT22;5844;51.496;6.788;2022-12-18T12:37:48;3.10;99.90
11577;DHT22;5844;51.496;6.788;2022-12-18T12:40:23;3.10;99.90
11577;DHT22;5844;51.496;6.788;2022-12-18T12:42:55;3.10;99.90
11577;DHT22;5844;51.496;6.788;2022-12-18T12:45:53;3.20;99.90
11577;DHT22;5844;51.496;6.788;2022-12-18T12:51:17;3.10;99.90
11577;DHT22;5844;51.496;6.788;2022-12-18T12:53:44;3.10;99.90
11577;DHT22;5844;51.496;6.788;2022-12-18T12:56:13;3.10;99.90
11577;DHT22;5844;51.496;6.788;2022-12-18T13:01:34;3.00;99.90
11577;DHT22;5844;51.496;6.788;2022-12-18T13:04:21;3.00;99.90
11577;DHT22;5844;51.496;6.788;2022-12-18T13:10:14;2.80;99.90
11577;DHT22;5844;51.496;6.788;2022-12-18T13:13:07;2.80;99.90
11577;DHT22;5844;51.496;6.788;2022-12-18T13:15:46;2.80;99.90
11577;DHT22;5844;51.496;6.788;2022-12-18T13:18:21;2.80;99.90
11577;DHT22;5844;51.496;6.788;2022-12-18T13:21:08;2.70;99.90
11577;DHT22;5844;51.496;6.788;2022-12-18T13:23:37;2.70;99.90
11577;DHT22;5844;51.496;6.788;2022-12-18T13:34:26;2.60;99.90
11577;DHT22;5844;51.496;6.788;2022-12-18T13:36:53;2.70;99.90
11577;DHT22;5844;51.496;6.788;2022-12-18T13:41:48;2.50;99.90
11577;DHT22;5844;51.496;6.788;2022-12-18T13:44:24;2.50;99.90
11577;DHT22;5844;51.496;6.788;2022-12-18T13:46:51;2.50;99.90
11577;DHT22;5844;51.496;6.788;2022-12-18T13:49:20;2.40;99.90
11577;DHT22;5844;51.496;6.788;2022-12-18T13:51:52;2.50;99.90
11577;DHT22;5844;51.496;6.788;2022-12-18T13:54:32;2.50;99.90
11577;DHT22;5844;51.496;6.788;2022-12-18T13:56:59;2.40;99.90
11577;DHT22;5844;51.496;6.788;2022-12-18T13:59:36;2.40;99.90
11577;DHT22;5844;51.496;6.788;2022-12-18T14:02:22;2.40;99.90
11577;DHT22;5844;51.496;6.788;2022-12-18T14:04:49;2.40;99.90
11577;DHT22;5844;51.496;6.788;2022-12-18T14:07:18;2.40;99.90
11577;DHT22;5844;51.496;6.788;2022-12-18T14:09:53;2.40;99.90
11577;DHT22;5844;51.496;6.788;2022-12-18T14:12:24;2.30;99.90
11577;DHT22;5844;51.496;6.788;2022-12-18T14:15:44;2.30;99.90
11577;DHT22;5844;51.496;6.788;2022-12-18T14:18:42;2.30;99.90
11577;DHT22;5844;51.496;6.788;2022-12-18T14:21:26;2.30;99.90
11577;DHT22;5844;51.496;6.788;2022-12-18T14:26:34;2.20;99.90
11577;DHT22;5844;51.496;6.788;2022-12-18T14:29:17;2.20;99.90
11577;DHT22;5844;51.496;6.788;2022-12-18T14:31:43;2.20;99.90
11577;DHT22;5844;51.496;6.788;2022-12-18T14:34:18;2.20;99.90
11577;DHT22;5844;51.496;6.788;2022-12-18T14:36:54;2.10;99.90
11577;DHT22;5844;51.496;6.788;2022-12-18T14:39:21;2.10;99.90
11577;DHT22;5844;51.496;6.788;2022-12-18T14:41:48;2.10;99.90
11577;DHT22;5844;51.496;6.788;2022-12-18T14:44:14;2.10;99.90
11577;DHT22;5844;51.496;6.788;2022-12-18T14:46:43;2.20;99.90
11577;DHT22;5844;51.496;6.788;2022-12-18T14:49:29;2.10;99.90
11577;DHT22;5844;51.496;6.788;2022-12-18T14:52:00;2.10;1.00
11577;DHT22;5844;51.496;6.788;2022-12-18T14:54:27;3.90;1.00
11577;DHT22;5844;51.496;6.788;2022-12-18T14:59:24;2.10;1.00
11577;DHT22;5844;51.496;6.788;2022-12-18T15:04:41;2.00;1.00
11577;DHT22;5844;51.496;6.788;2022-12-18T15:07:14;2.00;99.90
11577;DHT22;5844;51.496;6.788;2022-12-18T15:09:42;2.00;99.90
11577;DHT22;5844;51.496;6.788;2022-12-18T15:20:45;1.90;99.90
11577;DHT22;5844;51.496;6.788;2022-12-18T15:23:32;1.90;99.90
11577;DHT22;5844;51.496;6.788;2022-12-18T15:26:00;1.90;99.90
11577;DHT22;5844;51.496;6.788;2022-12-18T15:28:28;1.90;99.90
11577;DHT22;5844;51.496;6.788;2022-12-18T15:36:20;1.90;99.90
11577;DHT22;5844;51.496;6.788;2022-12-18T15:38:50;1.90;99.90
11577;DHT22;5844;51.496;6.788;2022-12-18T15:41:18;1.80;1.00
11577;DHT22;5844;51.496;6.788;2022-12-18T15:43:45;1.80;1.00
11577;DHT22;5844;51.496;6.788;2022-12-18T15:46:20;1.90;99.90
11577;DHT22;5844;51.496;6.788;2022-12-18T15:48:55;1.90;1.00
11577;DHT22;5844;51.496;6.788;2022-12-18T15:51:35;1.80;1.00
11577;DHT22;5844;51.496;6.788;2022-12-18T15:54:04;1.80;1.00
11577;DHT22;5844;51.496;6.788;2022-12-18T15:56:30;1.80;1.00
11577;DHT22;5844;51.496;6.788;2022-12-18T15:59:17;1.80;99.90
11577;DHT22;5844;51.496;6.788;2022-12-18T16:01:46;1.80;1.00
11577;DHT22;5844;51.496;6.788;2022-12-18T16:04:14;1.80;1.00
11577;DHT22;5844;51.496;6.788;2022-12-18T16:06:40;1.70;99.90
11577;DHT22;5844;51.496;6.788;2022-12-18T16:09:07;1.70;99.90
11577;DHT22;5844;51.496;6.788;2022-12-18T16:11:35;1.70;99.90
11577;DHT22;5844;51.496;6.788;2022-12-18T16:14:25;1.60;99.90
11577;DHT22;5844;51.496;6.788;2022-12-18T16:16:57;1.60;99.90
11577;DHT22;5844;51.496;6.788;2022-12-18T16:19:23;1.60;99.90
11577;DHT22;5844;51.496;6.788;2022-12-18T16:21:50;1.60;99.90
11577;DHT22;5844;51.496;6.788;2022-12-18T16:24:22;1.70;99.90
11577;DHT22;5844;51.496;6.788;2022-12-18T16:26:49;1.90;1.00
11577;DHT22;5844;51.496;6.788;2022-12-18T16:29:17;2.00;99.90
11577;DHT22;5844;51.496;6.788;2022-12-18T16:31:43;2.00;99.90
11577;DHT22;5844;51.496;6.788;2022-12-18T16:34:20;1.90;99.90
11577;DHT22;5844;51.496;6.788;2022-12-18T16:36:51;1.80;99.90
11577;DHT22;5844;51.496;6.788;2022-12-18T16:39:17;1.70;99.90
11577;DHT22;5844;51.496;6.788;2022-12-18T16:41:43;1.70;99.90
11577;DHT22;5844;51.496;6.788;2022-12-18T16:44:09;1.60;99.90
11577;DHT22;5844;51.496;6.788;2022-12-18T16:46:35;1.60;99.90
11577;DHT22;5844;51.496;6.788;2022-12-18T16:49:01;1.60;99.90
11577;DHT22;5844;51.496;6.788;2022-12-18T16:51:27;1.50;99.90
11577;DHT22;5844;51.496;6.788;2022-12-18T16:53:54;1.50;99.90
11577;DHT22;5844;51.496;6.788;2022-12-18T16:56:23;1.50;99.90
11577;DHT22;5844;51.496;6.788;2022-12-18T16:58:53;1.40;99.90
11577;DHT22;5844;51.496;6.788;2022-12-18T17:01:19;1.40;99.90
11577;DHT22;5844;51.496;6.788;2022-12-18T17:03:54;1.40;99.90
11577;DHT22;5844;51.496;6.788;2022-12-18T17:06:21;1.40;99.90
11577;DHT22;5844;51.496;6.788;2022-12-18T17:08:48;1.30;1.00
11577;DHT22;5844;51.496;6.788;2022-12-18T17:11:19;1.30;1.00
11577;DHT22;5844;51.496;6.788;2022-12-18T17:13:44;1.40;1.00
11577;DHT22;5844;51.496;6.788;2022-12-18T17:16:10;1.40;1.00
11577;DHT22;5844;51.496;6.788;2022-12-18T17:18:36;1.40;1.00
11577;DHT22;5844;51.496;6.788;2022-12-18T17:21:03;1.30;1.00
11577;DHT22;5844;51.496;6.788;2022-12-18T17:23:29;1.30;1.00
11577;DHT22;5844;51.496;6.788;2022-12-18T17:25:59;1.40;1.00
11577;DHT22;5844;51.496;6.788;2022-12-18T17:28:26;1.30;1.00
11577;DHT22;5844;51.496;6.788;2022-12-18T17:30:55;1.40;1.00
11577;DHT22;5844;51.496;6.788;2022-12-18T17:33:22;2.50;1.00
11577;DHT22;5844;51.496;6.788;2022-12-18T17:35:48;1.30;1.00
11577;DHT22;5844;51.496;6.788;2022-12-18T17:38:14;1.30;1.00
11577;DHT22;5844;51.496;6.788;2022-12-18T17:40:40;1.30;1.00
11577;DHT22;5844;51.496;6.788;2022-12-18T17:43:06;1.30;1.00
11577;DHT22;5844;51.496;6.788;2022-12-18T17:45:36;1.30;1.00
11577;DHT22;5844;51.496;6.788;2022-12-18T17:48:06;1.30;1.00
11577;DHT22;5844;51.496;6.788;2022-12-18T17:50:32;1.30;1.00
11577;DHT22;5844;51.496;6.788;2022-12-18T17:52:59;1.30;1.00
11577;DHT22;5844;51.496;6.788;2022-12-18T17:55:25;1.30;1.00
11577;DHT22;5844;51.496;6.788;2022-12-18T17:57:51;1.30;1.00
11577;DHT22;5844;51.496;6.788;2022-12-18T18:00:17;1.30;1.00
11577;DHT22;5844;51.496;6.788;2022-12-18T18:02:43;1.20;1.00
11577;DHT22;5844;51.496;6.788;2022-12-18T18:05:09;1.20;1.00
11577;DHT22;5844;51.496;6.788;2022-12-18T18:07:36;1.20;1.00